METAR AND TAF INFORMATION
METAR FOR RJTT
RJTT 130830Z 11006KT 9999 FEW030 BKN/// 18/13 Q1017 NOSIG RMK 1CU030 A3006
RJTT 130800Z 09007KT 9999 FEW030 BKN/// 18/12 Q1017 NOSIG RMK 1CU030 A3005
RJTT 130730Z 09006KT 9999 FEW030 BKN/// 18/13 Q1017 NOSIG RMK 1CU030 A3005
RJTT 130700Z 09007KT 9999 FEW030 BKN/// 18/12 Q1017 NOSIG RMK 1CU030 A3005
RJTT 130630Z 08009KT 9999 FEW030 BKN/// 18/12 Q1017 NOSIG RMK 1CU030 A3004
RJTT 130600Z 07009KT 9999 FEW030 BKN/// 19/12 Q1017 NOSIG RMK 1CU030 A3004

TAF RJTT 130505Z 1306/1412 08008KT 9999 FEW030
BECMG 1312/1314 04006KT
BECMG 1400/1403 10004KT
BECMG 1406/1409 20010KT

 AIRPORT MAP

 RUNWAY INFORMATION
Runway 04 Runway length 8200 ft Runway width 200 ft
Runway elevation 19 ft Runway displaced threshold 0 ft Runway heading 35
Runway 22 Runway length 8200 ft Runway width 200 ft
Runway elevation 35 ft Runway displaced threshold 0 ft Runway heading 215
Runway 05 Runway length 8200 ft Runway width 200 ft
Runway elevation 46 ft Runway displaced threshold 0 ft Runway heading 57
Runway 23 Runway length 8200 ft Runway width 200 ft
Runway elevation 55 ft Runway displaced threshold 0 ft Runway heading 223
Runway 16L Runway length 9840 ft Runway width 200 ft
Runway elevation 22 ft Runway displaced threshold 0 ft Runway heading 150
Runway 34R Runway length 9840 ft Runway width 200 ft
Runway elevation 20 ft Runway displaced threshold 0 ft Runway heading 330
Runway 16R Runway length 9840 ft Runway width 200 ft
Runway elevation 20 ft Runway displaced threshold 0 ft Runway heading 150
Runway 34L Runway length 9840 ft Runway width 200 ft
Runway elevation 20 ft Runway displaced threshold 0 ft Runway heading 330

 AIRPORT FREQUENCIES
Type A/G Name NORTH PACI Frequency 126.9 MHZ
Type APP Name APP Frequency 119.1 MHZ
Type ATIS Name ATIS Frequency 128.8 MHZ
Type CLR Name CLNC DEL Frequency 121.825 MHZ
Type DEP Name DEP Frequency 126 MHZ
Type GND Name GND Frequency 121.7 MHZ
Type TCA Name TCA Frequency 124.75 MHZ
Type TWR Name TWR Frequency 118.1 MHZ
Type DEP Name Frequency 120.8 MHZ
Type GND Name Frequency 121.625 MHZ
Type GND Name Frequency 121.975 MHZ
Type GND Name Frequency 118.225 MHZ
Type TWR Name Frequency 124.35 MHZ
Type TWR Name Frequency 118.725 MHZ
Type TWR Name Frequency 118.575 MHZ
Type TCA Name Frequency 119.45 MHZ

 AIRPORT NEAR NAVIGATION AIDS
Type NDB Name Haneda Frequency 337 KHZ
Type VOR-DME Name Haneda Frequency 112200 KHZ
Type VOR-DME Name Kohtoh Frequency 115000 KHZ

-